createdAt,value
2022-11-03T00:02:00.612Z,95945.00
2022-11-03T00:04:30.981Z,96181.00
2022-11-03T00:06:59.428Z,95916.00
2022-11-03T00:09:28.202Z,96186.00
2022-11-03T00:12:06.587Z,96262.00
2022-11-03T00:14:35.448Z,95977.00
2022-11-03T00:17:04.023Z,95598.00
2022-11-03T00:19:33.822Z,96177.00
2022-11-03T00:22:02.301Z,96004.00
2022-11-03T00:24:30.859Z,96169.00
2022-11-03T00:26:59.590Z,95918.00
2022-11-03T00:29:28.052Z,95894.00
2022-11-03T00:31:56.510Z,96221.00
2022-11-03T00:34:25.033Z,95274.00
2022-11-03T00:36:54.904Z,96149.00
2022-11-03T00:39:23.448Z,95925.00
2022-11-03T00:41:51.983Z,95879.00
2022-11-03T00:44:20.446Z,96153.00
2022-11-03T00:46:48.908Z,96173.00
2022-11-03T00:49:17.869Z,96148.00
2022-11-03T00:51:46.347Z,96142.00
2022-11-03T00:54:16.280Z,95677.00
2022-11-03T00:56:45.265Z,95439.00
2022-11-03T00:59:13.755Z,96005.00
2022-11-03T01:01:47.252Z,95780.00
2022-11-03T01:04:37.831Z,95554.00
2022-11-03T01:07:07.764Z,96100.00
2022-11-03T01:09:40.408Z,95950.00
2022-11-03T01:12:12.653Z,96135.00
2022-11-03T01:14:44.559Z,95723.00
2022-11-03T01:17:15.950Z,96200.00
2022-11-03T01:19:44.905Z,96131.00
2022-11-03T01:22:14.898Z,96120.00
2022-11-03T01:24:45.779Z,96168.00
2022-11-03T01:27:20.579Z,96114.00
2022-11-03T01:29:52.298Z,95157.00
2022-11-03T01:32:20.740Z,95719.00
2022-11-03T01:34:49.140Z,96105.00
2022-11-03T01:37:17.671Z,96025.00
2022-11-03T01:39:47.573Z,96133.00
2022-11-03T01:42:16.031Z,96092.00
2022-11-03T01:44:49.783Z,96087.00
2022-11-03T01:47:28.083Z,96086.00
2022-11-03T01:50:02.969Z,95821.00
2022-11-03T01:52:38.640Z,95797.00
2022-11-03T01:55:17.126Z,96030.00
2022-11-03T01:57:52.763Z,96073.00
2022-11-03T02:00:22.033Z,95894.00
2022-11-03T02:02:52.051Z,95930.00
2022-11-03T02:05:22.991Z,96085.00
2022-11-03T02:07:57.210Z,96060.00
2022-11-03T02:10:27.443Z,95848.00
2022-11-03T02:12:55.834Z,96058.00
2022-11-03T02:15:25.934Z,95830.00
2022-11-03T02:17:57.596Z,95740.00
2022-11-03T02:20:29.488Z,95750.00
2022-11-03T02:23:29.544Z,95809.00
2022-11-03T02:26:00.727Z,95796.00
2022-11-03T02:28:32.970Z,96051.00
2022-11-03T02:31:12.264Z,96082.00
2022-11-03T02:33:59.681Z,95766.00
2022-11-03T02:36:35.113Z,96038.00
2022-11-03T02:39:10.869Z,96101.00
2022-11-03T02:41:43.000Z,95782.00
2022-11-03T02:44:18.441Z,96103.00
2022-11-03T02:46:50.302Z,95798.00
2022-11-03T02:49:19.411Z,95915.00
2022-11-03T02:51:47.878Z,95752.00
2022-11-03T02:54:23.578Z,95769.00
2022-11-03T02:57:00.677Z,96005.00
2022-11-03T02:59:35.848Z,95725.00
2022-11-03T03:02:10.811Z,95799.00
2022-11-03T03:04:42.813Z,95993.00
2022-11-03T03:07:18.528Z,95996.00
2022-11-03T03:09:56.234Z,95867.00
2022-11-03T03:12:29.038Z,96036.00
2022-11-03T03:15:00.617Z,95991.00
2022-11-03T03:17:38.742Z,95866.00
2022-11-03T03:20:16.331Z,96008.00
2022-11-03T03:22:50.523Z,95985.00
2022-11-03T03:25:28.054Z,95736.00
2022-11-03T03:28:05.790Z,95733.00
2022-11-03T03:30:37.593Z,95489.00
2022-11-03T03:33:09.440Z,95733.00
2022-11-03T03:35:43.471Z,96002.00
2022-11-03T03:38:17.931Z,96030.00
2022-11-03T03:40:53.347Z,95795.00
2022-11-03T03:43:26.874Z,95959.00
2022-11-03T03:46:03.408Z,95991.00
2022-11-03T03:48:31.994Z,95891.00
2022-11-03T03:51:03.089Z,95723.00
2022-11-03T03:53:32.408Z,95422.00
2022-11-03T03:56:01.260Z,95957.00
2022-11-03T03:58:31.144Z,95952.00
2022-11-03T04:00:59.681Z,95742.00
2022-11-03T04:03:29.364Z,95948.00
2022-11-03T04:05:58.000Z,95837.00
2022-11-03T04:08:26.698Z,95639.00
2022-11-03T04:11:12.684Z,95661.00
2022-11-03T04:13:59.881Z,95880.00
2022-11-03T04:16:45.832Z,95751.00
2022-11-03T04:19:31.799Z,95838.00
2022-11-03T04:22:18.167Z,95665.00
2022-11-03T04:24:48.648Z,95689.00
2022-11-03T04:27:33.235Z,95922.00
2022-11-03T04:30:15.407Z,95972.00
2022-11-03T04:32:45.372Z,95325.00
2022-11-03T04:35:20.597Z,95939.00
2022-11-03T04:37:57.051Z,95666.00
2022-11-03T04:40:25.696Z,95668.00
2022-11-03T04:42:54.379Z,95075.00
2022-11-03T04:45:31.329Z,95890.00
2022-11-03T04:48:03.218Z,95890.00
2022-11-03T04:50:31.657Z,95290.00
2022-11-03T04:53:01.116Z,95619.00
2022-11-03T04:55:29.588Z,95955.00
2022-11-03T04:58:03.809Z,95931.00
2022-11-03T05:00:33.805Z,95857.00
2022-11-03T05:03:02.613Z,95562.00
2022-11-03T05:05:31.090Z,95840.00
2022-11-03T05:08:00.464Z,95601.00
2022-11-03T05:10:30.833Z,95830.00
2022-11-03T05:13:02.096Z,95881.00
2022-11-03T05:15:37.002Z,95547.00
2022-11-03T05:18:21.231Z,95566.00
2022-11-03T05:20:57.772Z,95873.00
2022-11-03T05:23:30.854Z,95747.00
2022-11-03T05:26:00.546Z,95829.00
2022-11-03T05:28:35.061Z,95816.00
2022-11-03T05:31:25.494Z,95236.00
2022-11-03T05:33:58.604Z,95770.00
2022-11-03T05:36:31.715Z,95569.00
2022-11-03T05:39:23.289Z,95804.00
2022-11-03T05:41:51.805Z,95509.00
2022-11-03T05:44:33.595Z,95343.00
2022-11-03T05:47:10.214Z,95819.00
2022-11-03T05:49:38.842Z,95674.00
2022-11-03T05:52:17.015Z,95801.00
2022-11-03T05:54:45.607Z,95693.00
2022-11-03T05:57:17.213Z,95586.00
2022-11-03T05:59:49.130Z,95799.00
2022-11-03T06:02:39.177Z,95794.00
2022-11-03T06:05:19.413Z,95534.00
2022-11-03T06:07:49.674Z,95612.00
2022-11-03T06:10:29.667Z,95814.00
2022-11-03T06:13:03.700Z,95659.00
2022-11-03T06:15:36.101Z,95792.00
2022-11-03T06:18:16.323Z,95669.00
2022-11-03T06:20:51.990Z,95781.00
2022-11-03T06:23:21.902Z,95785.00
2022-11-03T06:25:53.831Z,95750.00
2022-11-03T06:28:36.883Z,95139.00
2022-11-03T06:31:08.234Z,95796.00
2022-11-03T06:33:38.192Z,95574.00
2022-11-03T06:36:19.879Z,95567.00
2022-11-03T06:38:55.713Z,95748.00
2022-11-03T06:41:28.864Z,95782.00
2022-11-03T06:43:58.609Z,95899.00
2022-11-03T06:46:28.689Z,95301.00
2022-11-03T06:49:04.320Z,95332.00
2022-11-03T06:51:37.149Z,95702.00
2022-11-03T06:54:11.187Z,95272.00
2022-11-03T06:56:39.843Z,95725.00
2022-11-03T06:59:15.429Z,95787.00
2022-11-03T07:01:45.755Z,94704.00
2022-11-03T07:04:20.964Z,95175.00
2022-11-03T07:06:53.336Z,95625.00
2022-11-03T07:09:26.298Z,95497.00
2022-11-03T07:11:58.775Z,95810.00
2022-11-03T07:14:30.802Z,95739.00
2022-11-03T07:17:03.586Z,95758.00
2022-11-03T07:19:37.722Z,95790.00
2022-11-03T07:22:16.298Z,95615.00
2022-11-03T07:24:48.388Z,95652.00
2022-11-03T07:27:23.447Z,95744.00
2022-11-03T07:29:54.552Z,95742.00
2022-11-03T07:32:27.858Z,95764.00
2022-11-03T07:35:12.869Z,95218.00
2022-11-03T07:37:41.427Z,95810.00
2022-11-03T07:40:17.298Z,95764.00
2022-11-03T07:42:46.341Z,95729.00
2022-11-03T07:45:39.412Z,95724.00
2022-11-03T07:48:21.714Z,95795.00
2022-11-03T07:50:55.153Z,95382.00
2022-11-03T07:53:34.754Z,95811.00
2022-11-03T07:56:14.478Z,95737.00
2022-11-03T07:58:44.647Z,95621.00
2022-11-03T08:01:27.195Z,95738.00
2022-11-03T08:04:01.871Z,95325.00
2022-11-03T08:06:31.984Z,95708.00
2022-11-03T08:09:00.778Z,95701.00
2022-11-03T08:11:29.957Z,94883.00
2022-11-03T08:13:58.634Z,95695.00
2022-11-03T08:16:27.445Z,95286.00
2022-11-03T08:18:55.963Z,95700.00
2022-11-03T08:21:24.726Z,95342.00
2022-11-03T08:23:54.753Z,95720.00
2022-11-03T08:26:24.046Z,95476.00
2022-11-03T08:28:53.261Z,95665.00
2022-11-03T08:31:21.847Z,95514.00
2022-11-03T08:33:50.304Z,95695.00
2022-11-03T08:36:20.025Z,95692.00
2022-11-03T08:38:48.472Z,95524.00
2022-11-03T08:41:18.453Z,95646.00
2022-11-03T08:43:46.987Z,95385.00
2022-11-03T08:46:17.954Z,95405.00
2022-11-03T08:48:47.314Z,95413.00
2022-11-03T08:51:16.757Z,95622.00
2022-11-03T08:53:46.371Z,95393.00
2022-11-03T08:56:19.017Z,95489.00
2022-11-03T08:58:50.348Z,95081.00
2022-11-03T09:01:19.057Z,95581.00
2022-11-03T09:03:47.592Z,95514.00
2022-11-03T09:06:16.415Z,95378.00
2022-11-03T09:11:33.327Z,95364.00
2022-11-03T09:14:03.302Z,95600.00
2022-11-03T09:16:31.974Z,95494.00
2022-11-03T09:19:00.458Z,95585.00
2022-11-03T09:21:28.955Z,95479.00
2022-11-03T09:23:59.458Z,95402.00
2022-11-03T09:26:28.070Z,95063.00
2022-11-03T09:28:56.479Z,95351.00
2022-11-03T09:31:28.640Z,95463.00
2022-11-03T09:33:57.586Z,95573.00
2022-11-03T09:36:26.078Z,95297.00
2022-11-03T09:38:54.438Z,95446.00
2022-11-03T09:41:27.793Z,95572.00
2022-11-03T09:44:13.562Z,95505.00
2022-11-03T09:46:43.563Z,95356.00
2022-11-03T09:49:15.721Z,95575.00
2022-11-03T09:51:45.620Z,95203.00
2022-11-03T09:54:17.622Z,95578.00
2022-11-03T09:56:47.338Z,95491.00
2022-11-03T09:59:18.848Z,95578.00
2022-11-03T10:01:53.582Z,95616.00
2022-11-03T10:04:28.466Z,95370.00
2022-11-03T10:06:58.085Z,95464.00
2022-11-03T10:09:30.168Z,95364.00
2022-11-03T10:11:58.789Z,95572.00
2022-11-03T10:14:27.382Z,95469.00
2022-11-03T10:17:01.160Z,95546.00
2022-11-03T10:19:32.256Z,95055.00
2022-11-03T10:22:00.869Z,94878.00
2022-11-03T10:24:29.466Z,95556.00
2022-11-03T10:26:58.180Z,95609.00
2022-11-03T10:29:28.779Z,95532.00
2022-11-03T10:32:00.665Z,95534.00
2022-11-03T10:34:36.558Z,95421.00
2022-11-03T10:37:25.362Z,95407.00
2022-11-03T10:39:55.668Z,95367.00
2022-11-03T10:42:30.595Z,95527.00
2022-11-03T10:45:17.956Z,95516.00
2022-11-03T10:48:05.731Z,95525.00
2022-11-03T10:50:34.552Z,95506.00
2022-11-03T10:53:05.256Z,95507.00
2022-11-03T10:55:34.013Z,95552.00
2022-11-03T10:58:02.520Z,95393.00
2022-11-03T11:00:33.364Z,95265.00
2022-11-03T11:03:03.428Z,95498.00
2022-11-03T11:05:32.011Z,95301.00
2022-11-03T11:08:02.385Z,95269.00
2022-11-03T11:10:35.041Z,95320.00
2022-11-03T11:13:27.634Z,95473.00
2022-11-03T11:15:59.059Z,95476.00
2022-11-03T11:19:14.814Z,95389.00
2022-11-03T11:22:01.744Z,95342.00
2022-11-03T11:24:59.640Z,95458.00
2022-11-03T11:28:12.833Z,95451.00
2022-11-03T11:31:31.059Z,95442.00
2022-11-03T11:34:43.062Z,95447.00
2022-11-03T11:37:36.009Z,95439.00
2022-11-03T11:40:14.072Z,95446.00
2022-11-03T11:43:27.659Z,95436.00
2022-11-03T11:46:41.222Z,95211.00
2022-11-03T11:49:20.362Z,95472.00
2022-11-03T11:51:50.272Z,95419.00
2022-11-03T11:54:22.215Z,95089.00
2022-11-03T11:56:51.810Z,95414.00
2022-11-03T11:59:26.016Z,95322.00
2022-11-03T12:01:57.927Z,95332.00
2022-11-03T12:04:31.556Z,95406.00
2022-11-03T12:07:02.709Z,95402.00
2022-11-03T12:09:31.214Z,95195.00
2022-11-03T12:12:08.295Z,95396.00
2022-11-03T12:14:39.352Z,95425.00
2022-11-03T12:17:33.202Z,95307.00
2022-11-03T12:20:02.087Z,95371.00
2022-11-03T12:22:44.147Z,95358.00
2022-11-03T12:25:37.193Z,95411.00
2022-11-03T12:28:06.457Z,95361.00
2022-11-03T12:30:39.709Z,95005.00
2022-11-03T12:33:08.988Z,94940.00
2022-11-03T12:35:38.372Z,95343.00
2022-11-03T12:38:08.455Z,95177.00
2022-11-03T12:40:36.939Z,95341.00
2022-11-03T12:43:05.745Z,95207.00
2022-11-03T12:45:34.425Z,94646.00
2022-11-03T12:48:17.130Z,94705.00
2022-11-03T12:50:48.877Z,95329.00
2022-11-03T12:53:18.700Z,95228.00
2022-11-03T12:55:47.126Z,95103.00
2022-11-03T12:58:15.594Z,95315.00
2022-11-03T13:00:49.849Z,95048.00
2022-11-03T13:03:22.364Z,95089.00
2022-11-03T13:05:53.590Z,94951.00
2022-11-03T13:08:23.546Z,94562.00
2022-11-03T13:10:52.145Z,95159.00
2022-11-03T13:13:20.652Z,95296.00
2022-11-03T13:15:49.134Z,95291.00
2022-11-03T13:18:17.643Z,95071.00
2022-11-03T13:20:46.280Z,95033.00
2022-11-03T13:23:17.493Z,95113.00
2022-11-03T13:25:50.345Z,95176.00
2022-11-03T13:28:18.908Z,95268.00
2022-11-03T13:30:47.695Z,95265.00
2022-11-03T13:33:16.140Z,95061.00
2022-11-03T13:35:44.728Z,95258.00
2022-11-03T13:38:13.179Z,95257.00
2022-11-03T13:41:01.140Z,95223.00
2022-11-03T13:43:31.531Z,95240.00
2022-11-03T13:46:02.587Z,95221.00
2022-11-03T13:51:21.557Z,95216.00
2022-11-03T13:59:28.896Z,95241.00
2022-11-03T14:04:46.888Z,95196.00
2022-11-03T14:07:15.573Z,95229.00
2022-11-03T14:09:44.242Z,95179.00
2022-11-03T14:12:30.219Z,95181.00
2022-11-03T14:15:00.903Z,95045.00
2022-11-03T14:17:30.009Z,95179.00
2022-11-03T14:20:04.267Z,94825.00
2022-11-03T14:22:33.955Z,95087.00
2022-11-03T14:25:02.935Z,95169.00
2022-11-03T14:27:34.841Z,95169.00
2022-11-03T14:30:06.089Z,94821.00
2022-11-03T14:32:34.610Z,95158.00
2022-11-03T14:35:03.162Z,94790.00
2022-11-03T14:37:31.779Z,95147.00
2022-11-03T14:40:00.431Z,95133.00
2022-11-03T14:42:27.936Z,94886.00
2022-11-03T14:44:56.630Z,94776.00
2022-11-03T14:47:26.762Z,95133.00
2022-11-03T14:49:55.268Z,95061.00
2022-11-03T14:52:23.697Z,94941.00
2022-11-03T14:54:52.278Z,94814.00
2022-11-03T14:57:20.769Z,94660.00
2022-11-03T14:59:53.181Z,94920.00
2022-11-03T15:02:22.114Z,95160.00
2022-11-03T15:04:54.774Z,94912.00
2022-11-03T15:07:23.326Z,94892.00
2022-11-03T15:09:51.838Z,94503.00
2022-11-03T15:12:20.396Z,94843.00
2022-11-03T15:14:48.830Z,95042.00
2022-11-03T15:17:17.370Z,95082.00
2022-11-03T15:19:45.825Z,94601.00
2022-11-03T15:22:15.895Z,95073.00
2022-11-03T15:27:34.244Z,95058.00
2022-11-03T15:30:02.840Z,94847.00
2022-11-03T15:32:36.186Z,94667.00
2022-11-03T15:35:05.778Z,94886.00
2022-11-03T15:37:35.673Z,94668.00
2022-11-03T15:40:04.612Z,95022.00
2022-11-03T15:42:33.081Z,94922.00
2022-11-03T15:45:01.555Z,95012.00
2022-11-03T15:47:30.040Z,94745.00
2022-11-03T15:49:58.525Z,94913.00
2022-11-03T15:52:27.148Z,94786.00
2022-11-03T15:54:57.160Z,94998.00
2022-11-03T15:57:25.711Z,94990.00
2022-11-03T15:59:57.749Z,94988.00
2022-11-03T16:02:40.874Z,94809.00
2022-11-03T16:05:11.561Z,94793.00
2022-11-03T16:07:40.253Z,94973.00
2022-11-03T16:10:10.961Z,94875.00
2022-11-03T16:12:39.465Z,94990.00
2022-11-03T16:15:10.358Z,94769.00
2022-11-03T16:17:44.300Z,94988.00
2022-11-03T16:20:14.219Z,94883.00
2022-11-03T16:22:42.780Z,94759.00
2022-11-03T16:25:16.727Z,94951.00
2022-11-03T16:27:46.555Z,94950.00
2022-11-03T16:30:15.416Z,94959.00
2022-11-03T16:32:44.029Z,94920.00
2022-11-03T16:35:12.526Z,94754.00
2022-11-03T16:37:41.112Z,94803.00
2022-11-03T16:40:17.976Z,94917.00
2022-11-03T16:42:48.428Z,94995.00
2022-11-03T16:45:20.519Z,94941.00
2022-11-03T16:47:51.109Z,94906.00
2022-11-03T16:50:20.822Z,94709.00
2022-11-03T16:52:50.882Z,94932.00
2022-11-03T16:55:21.617Z,94637.00
2022-11-03T16:57:50.297Z,94931.00
2022-11-03T17:00:21.138Z,94990.00
2022-11-03T17:02:50.236Z,94924.00
2022-11-03T17:05:22.044Z,94584.00
2022-11-03T17:07:54.004Z,94641.00
2022-11-03T17:10:24.886Z,94723.00
2022-11-03T17:12:53.630Z,94523.00
2022-11-03T17:15:24.155Z,94845.00
2022-11-03T17:17:52.864Z,94811.00
2022-11-03T17:20:21.764Z,94863.00
2022-11-03T17:22:50.348Z,94728.00
2022-11-03T17:25:19.339Z,94358.00
2022-11-03T17:27:53.833Z,94737.00
2022-11-03T17:30:25.359Z,94876.00
2022-11-03T17:32:57.379Z,94670.00
2022-11-03T17:35:36.219Z,94844.00
2022-11-03T17:38:13.804Z,94774.00
2022-11-03T17:40:45.342Z,94828.00
2022-11-03T17:43:23.019Z,94670.00
2022-11-03T17:45:51.560Z,94869.00
2022-11-03T17:48:20.085Z,94441.00
2022-11-03T17:50:53.351Z,94829.00
2022-11-03T17:53:26.615Z,94737.00
2022-11-03T17:56:27.723Z,94633.00
2022-11-03T17:58:47.446Z,94824.00
2022-11-03T18:01:25.077Z,94715.00
2022-11-03T18:03:53.839Z,94718.00
2022-11-03T18:06:23.060Z,94724.00
2022-11-03T18:08:51.715Z,94620.00
2022-11-03T18:11:46.688Z,94820.00
2022-11-03T18:14:17.748Z,94715.00
2022-11-03T18:16:46.739Z,94099.00
2022-11-03T18:19:17.631Z,94804.00
2022-11-03T18:21:46.585Z,94800.00
2022-11-03T18:24:17.673Z,94593.00
2022-11-03T18:26:46.391Z,94801.00
2022-11-03T18:29:16.517Z,94740.00
2022-11-03T18:31:49.864Z,94676.00
2022-11-03T18:34:23.537Z,94770.00
2022-11-03T18:36:55.348Z,94755.00
2022-11-03T18:39:27.348Z,94303.00
2022-11-03T18:41:56.571Z,94755.00
2022-11-03T18:44:29.405Z,94740.00
2022-11-03T18:46:59.586Z,94580.00
2022-11-03T18:49:30.241Z,94449.00
2022-11-03T18:52:03.856Z,94581.00
2022-11-03T18:54:39.184Z,94688.00
2022-11-03T18:57:10.047Z,94709.00
2022-11-03T18:59:44.814Z,94715.00
2022-11-03T19:02:19.749Z,94118.00
2022-11-03T19:04:48.959Z,94725.00
2022-11-03T19:07:24.294Z,94724.00
2022-11-03T19:09:55.015Z,94729.00
2022-11-03T19:12:23.923Z,94724.00
2022-11-03T19:14:53.896Z,94708.00
2022-11-03T19:17:25.319Z,94602.00
2022-11-03T19:19:54.623Z,94194.00
2022-11-03T19:22:24.433Z,94697.00
2022-11-03T19:24:53.015Z,94493.00
2022-11-03T19:27:29.998Z,94690.00
2022-11-03T19:30:03.780Z,94680.00
2022-11-03T19:32:36.943Z,94679.00
2022-11-03T19:35:10.256Z,94456.00
2022-11-03T19:37:38.967Z,94599.00
2022-11-03T19:40:12.680Z,94675.00
2022-11-03T19:42:40.198Z,94531.00
2022-11-03T19:45:15.996Z,94691.00
2022-11-03T19:48:18.153Z,94667.00
2022-11-03T19:50:42.512Z,94665.00
2022-11-03T19:53:20.028Z,94630.00
2022-11-03T19:55:49.541Z,94657.00
2022-11-03T19:58:21.574Z,94647.00
2022-11-03T20:00:54.670Z,94642.00
2022-11-03T20:03:24.187Z,94657.00
2022-11-03T20:05:56.130Z,94543.00
2022-11-03T20:08:28.261Z,94507.00
2022-11-03T20:10:57.144Z,94518.00
2022-11-03T20:13:31.328Z,94658.00
2022-11-03T20:16:01.721Z,94143.00
2022-11-03T20:18:30.380Z,94469.00
2022-11-03T20:20:59.876Z,94607.00
2022-11-03T20:23:32.093Z,94617.00
2022-11-03T20:26:01.662Z,94677.00
2022-11-03T20:28:33.075Z,94536.00
2022-11-03T20:31:03.921Z,94685.00
2022-11-03T20:33:32.834Z,94633.00
2022-11-03T20:36:02.083Z,94574.00
2022-11-03T20:38:31.626Z,94171.00
2022-11-03T20:41:05.333Z,94397.00
2022-11-03T20:43:38.598Z,94194.00
2022-11-03T20:46:24.050Z,94573.00
2022-11-03T20:48:55.337Z,94213.00
2022-11-03T20:51:26.300Z,94594.00
2022-11-03T20:53:55.777Z,94270.00
2022-11-03T20:56:28.425Z,94000.00
2022-11-03T20:58:58.193Z,94618.00
2022-11-03T21:01:33.188Z,94199.00
2022-11-03T21:04:03.627Z,94341.00
2022-11-03T21:06:34.214Z,94625.00
2022-11-03T21:09:03.051Z,94355.00
2022-11-03T21:11:39.903Z,94006.00
2022-11-03T21:14:16.950Z,94664.00
2022-11-03T21:17:04.234Z,94566.00
2022-11-03T21:19:57.245Z,94353.00
2022-11-03T21:25:24.650Z,93935.00
2022-11-03T21:27:54.757Z,94594.00
2022-11-03T21:30:24.538Z,94627.00
2022-11-03T21:32:54.529Z,94111.00
2022-11-03T21:35:24.096Z,94598.00
2022-11-03T21:37:52.764Z,94600.00
2022-11-03T21:40:21.731Z,94548.00
2022-11-03T21:43:07.628Z,94671.00
2022-11-03T21:45:36.157Z,94498.00
2022-11-03T21:48:24.552Z,94528.00
2022-11-03T21:50:53.160Z,94219.00
2022-11-03T21:53:22.066Z,94579.00
2022-11-03T21:55:51.137Z,94320.00
2022-11-03T21:58:19.663Z,94503.00
2022-11-03T22:00:48.501Z,94425.00
2022-11-03T22:03:18.410Z,94145.00
2022-11-03T22:05:46.905Z,94578.00
2022-11-03T22:08:15.441Z,94604.00
2022-11-03T22:10:43.955Z,94496.00
2022-11-03T22:13:12.792Z,94614.00
2022-11-03T22:15:59.035Z,94243.00
2022-11-03T22:18:28.895Z,94618.00
2022-11-03T22:21:16.934Z,94627.00
2022-11-03T22:24:02.821Z,94416.00
2022-11-03T22:26:48.802Z,94504.00
2022-11-03T22:29:34.806Z,94437.00
2022-11-03T22:32:03.513Z,94346.00
2022-11-03T22:34:56.136Z,94749.00
2022-11-03T22:37:24.627Z,94488.00
2022-11-03T22:40:10.590Z,94620.00
2022-11-03T22:42:56.495Z,94624.00
2022-11-03T22:45:42.492Z,94328.00
2022-11-03T22:48:12.723Z,94640.00
2022-11-03T22:50:42.610Z,94486.00
2022-11-03T22:53:36.813Z,94585.00
2022-11-03T22:56:05.627Z,94708.00
2022-11-03T22:58:34.791Z,94722.00
2022-11-03T23:01:09.019Z,94414.00
2022-11-03T23:03:40.063Z,94579.00
2022-11-03T23:06:12.119Z,94670.00
2022-11-03T23:08:43.405Z,94684.00
2022-11-03T23:11:17.253Z,94133.00
2022-11-03T23:13:47.866Z,94675.00
2022-11-03T23:16:19.432Z,94601.00
2022-11-03T23:19:06.139Z,94482.00
2022-11-03T23:21:36.954Z,94705.00
2022-11-03T23:24:23.896Z,94693.00
2022-11-03T23:26:52.749Z,94307.00
2022-11-03T23:29:21.267Z,94693.00
2022-11-03T23:31:49.916Z,94665.00
2022-11-03T23:34:18.915Z,94441.00
2022-11-03T23:36:50.805Z,94702.00
2022-11-03T23:39:21.659Z,94737.00
2022-11-03T23:41:51.434Z,94655.00
2022-11-03T23:44:20.053Z,93672.00
2022-11-03T23:47:05.828Z,94657.00
2022-11-03T23:49:34.415Z,94623.00
2022-11-03T23:52:04.562Z,94091.00
2022-11-03T23:54:33.262Z,94603.00
2022-11-03T23:57:18.985Z,93923.00
2022-11-03T23:59:47.479Z,94008.00
